ADDS METAR Data INFO
IDs: Format: Raw Decoded Include TAF

Data at: 2055 UTC 24 Jun 2017

KSOA 242035Z AUTO 14009G15KT 090V160 10SM CLR 28/18 A3018 RMK AO2
KSOA 242015Z AUTO 09011G18KT 070V130 10SM FEW030 FEW040 FEW050 27/18 A3019 RMK AO2
KSOA 241955Z AUTO 12013KT 10SM SCT026 SCT046 SCT065 27/19 A3020 RMK AO2
KSOA 241935Z AUTO 11011G17KT 10SM SCT025 SCT049 BKN065 27/19 A3021 RMK AO2
KSOA 241915Z AUTO 11013G18KT 080V140 10SM 26/19 A3020 RMK AO2
KSOA 241855Z AUTO 09015KT 10SM FEW025 SCT039 SCT055 27/19 A3021 RMK AO2
KSOA 241835Z AUTO 10014G21KT 10SM FEW022 SCT028 SCT044 26/19 A3021 RMK AO2
KSOA 241815Z AUTO 09013G20KT 10SM BKN026 BKN030 BKN037 27/19 A3021 RMK AO2
KSOA 241755Z AUTO 09011G23KT 10SM 26/20 A3020 RMK AO2
KSOA 241735Z AUTO 06012KT 10SM 27/19 A3019 RMK AO2
KSOA 241715Z AUTO 09011G17KT 10SM CLR 26/19 A3019 RMK AO2
KSOA 241655Z AUTO 05013G20KT 10SM CLR 26/19 A3019 RMK AO2
KSOA 241635Z AUTO 05012G20KT 10SM FEW027 FEW033 FEW110 26/19 A3019 RMK AO2
KSOA 241615Z AUTO 05014G20KT 10SM SCT026 BKN033 BKN110 25/19 A3020 RMK AO2
KSOA 241555Z AUTO 04010G18KT 10SM BKN021 BKN028 25/20 A3020 RMK AO2
KSOA 241535Z AUTO 03011G17KT 10SM BKN019 BKN028 24/20 A3019 RMK AO2
KSOA 241515Z AUTO 02015KT 10SM BKN019 BKN028 24/19 A3019 RMK AO2 LTG DSNT E AND SE
KSOA 241455Z AUTO 02015G20KT 10SM OVC021 23/19 A3018 RMK AO2
KSOA 241435Z AUTO 02015KT 10SM OVC021 24/19 A3017 RMK AO2
KSOA 241415Z AUTO 36009KT 10SM OVC019 24/18 A3016 RMK AO2
KSOA 241355Z AUTO 01007KT 10SM BKN019 24/18 A3014 RMK AO2
KSOA 241335Z AUTO 00000KT 10SM BKN020 24/18 A3013 RMK AO2
KSOA 241315Z AUTO 35005KT 10SM SCT020 24/17 A3012 RMK AO2 LTG DSNT NE AND E
KSOA 241255Z AUTO 35005KT 10SM CLR 22/18 A3011 RMK AO2
KSOA 241235Z AUTO 00000KT 10SM CLR 22/18 A3011 RMK AO2 LTG DSNT E
KSOA 241215Z AUTO 00000KT 10SM CLR 22/18 A3010 RMK AO2
KSOA 241155Z AUTO 00000KT 10SM CLR 21/18 A3010 RMK AO2
KSOA 241135Z AUTO 00000KT 10SM CLR 22/18 A3009 RMK AO2
KSOA 241115Z AUTO 00000KT 10SM CLR 23/17 A3007 RMK AO2
KSOA 241055Z AUTO 00000KT 10SM CLR 23/18 A3006 RMK AO2
KSOA 241035Z AUTO 00000KT 10SM CLR 22/18 A3005 RMK AO2
KSOA 241015Z AUTO 00000KT 10SM CLR 24/16 A3004 RMK AO2
KSOA 240955Z AUTO 00000KT 10SM CLR 24/16 A3003 RMK AO2
KSOA 240935Z AUTO VRB04KT 10SM CLR 23/17 A3002 RMK AO2
KSOA 240915Z AUTO 35010G15KT 10SM CLR 22/18 A3001 RMK AO2
KSOA 240855Z AUTO 24006KT 10SM CLR 23/17 A2997 RMK AO2
KSOA 240835Z AUTO 00000KT 10SM CLR 23/17 A2995 RMK AO2
KSOA 240815Z AUTO 00000KT 10SM CLR 23/17 A2995 RMK AO2
KSOA 240755Z AUTO 00000KT 10SM CLR 23/18 A2997 RMK AO2
KSOA 240735Z AUTO 00000KT 10SM CLR 23/17 A2998 RMK AO2
KSOA 240715Z AUTO 17003KT 10SM CLR 24/17 A2999 RMK AO2
KSOA 240655Z AUTO 00000KT 10SM CLR 24/17 A3002 RMK AO2
KSOA 240635Z AUTO 36010G17KT 10SM -RA CLR 22/17 A3000 RMK AO2
KSOA 240615Z AUTO 34009G25KT 10SM -RA CLR 23/17 A3003 RMK AO2
KSOA 240555Z AUTO 34011G25KT 10SM VCTS RA CLR 22/17 A3005 RMK AO2 LTG DSNT SW
KSOA 240535Z AUTO 30016G24KT 8SM -TSRA FEW001 SCT010 SCT021 21/18 A3005 RMK AO2 LTG DSNT ALQDS
KSOA 240515Z AUTO 32009G18KT 8SM -TSRA FEW028 FEW039 FEW060 22/18 A3016 RMK AO2
KSOA 240455Z AUTO 32015G23KT 8SM VCTS RA FEW001 FEW011 FEW019 21/18 A3013 RMK AO2 LTG DSNT ALQDS
KSOA 240435Z AUTO 32013G26KT VCTS RA FEW001 FEW010 SCT019 21/18 A3012 RMK AO2
KSOA 240415Z AUTO 33015G20KT 8SM VCTS RA CLR 21/19 A3012 RMK AO2
KSOA 240355Z AUTO 36016G28KT 7SM VCTS RA FEW065 22/18 A3011 RMK AO2 LTG DSNT ALQDS
KSOA 240335Z AUTO 34020G31KT 10SM VCTS FEW070 25/17 A3010 RMK AO2 LTG DSNT ALQDS
KSOA 240315Z AUTO 01022G32KT 10SM CLR 25/18 A3002 RMK AO2 LTG DSNT ALQDS
KSOA 240255Z AUTO 01022G31KT 10SM VCTS CLR 25/19 A3000 RMK AO2 LTG DSNT ALQDS
KSOA 240235Z AUTO 02020G29KT 10SM VCTS CLR 26/18 A2999 RMK AO2 LTG DSNT NW-NE
KSOA 240215Z AUTO 02024G34KT 9SM CLR 34/18 A2995 RMK AO2 LTG DSNT N AND NE
KSOA 240155Z AUTO 14007G13KT 10SM CLR 36/16 A2987 RMK AO2 LTG DSNT N AND NE
KSOA 240135Z AUTO 15008KT 10SM CLR 37/15 A2987 RMK AO2 LTG DSNT NW
KSOA 240115Z AUTO 14011KT 10SM CLR 37/15 A2985 RMK AO2 LTG DSNT N AND NW
KSOA 240055Z AUTO 14010KT 10SM CLR 38/14 A2984 RMK AO2
KSOA 240035Z AUTO 16010G15KT 10SM CLR 38/13 A2983 RMK AO2
KSOA 240015Z AUTO 14009KT 10SM CLR 39/13 A2982 RMK AO2
KSOA 232355Z AUTO 17011KT 10SM CLR 39/13 A2982 RMK AO2
KSOA 232335Z AUTO 16011KT 10SM CLR 39/13 A2982 RMK AO2
KSOA 232315Z AUTO 12007G14KT 10SM CLR 39/13 A2982 RMK AO2
KSOA 232255Z AUTO 13010KT 10SM CLR 39/13 A2982 RMK AO2
KSOA 232235Z AUTO 15009KT 120V180 10SM CLR 39/13 A2982 RMK AO2
KSOA 232215Z AUTO 14011KT 10SM CLR 39/13 A2983 RMK AO2
KSOA 232155Z AUTO 14009G15KT 10SM CLR 39/13 A2984 RMK AO2
KSOA 232135Z AUTO 15008G14KT 10SM CLR 40/14 A2985 RMK AO2
KSOA 232115Z AUTO 14009KT 10SM CLR 40/14 A2985 RMK AO2
KSOA 232055Z AUTO VRB05G14KT 10SM CLR 40/14 A2985 RMK AO2
KSOA 232035Z AUTO 17010KT 10SM CLR 39/14 A2986 RMK AO2
KSOA 232015Z AUTO 17013KT 10SM CLR 39/14 A2986 RMK AO2
KSOA 231955Z AUTO 12009G15KT 080V140 10SM CLR 39/14 A2987 RMK AO2
KSOA 231935Z AUTO 10011KT 080V140 10SM CLR 39/14 A2987 RMK AO2
KSOA 231915Z AUTO 14005G14KT 10SM CLR 38/14 A2988 RMK AO2
KSOA 231855Z AUTO 14011KT 120V180 10SM CLR 38/15 A2987 RMK AO2
KSOA 231835Z AUTO 18009G15KT 140V200 10SM CLR 38/15 A2987 RMK AO2
KSOA 231815Z AUTO 16010G17KT 10SM CLR 39/15 A2988 RMK AO2
KSOA 231755Z AUTO 19010KT 10SM CLR 38/16 A2988 RMK AO2
KSOA 231735Z AUTO 17012KT 10SM CLR 37/17 A2988 RMK AO2
KSOA 231715Z AUTO 19011KT 10SM CLR 37/16 A2989 RMK AO2
KSOA 231655Z AUTO 18010G15KT 10SM CLR 36/16 A2989 RMK AO2
KSOA 231635Z AUTO 19008G14KT 10SM CLR 35/17 A2989 RMK AO2
KSOA 231615Z AUTO 18007G13KT 160V220 10SM CLR 35/18 A2989 RMK AO2
KSOA 231555Z AUTO 16008KT 10SM CLR 33/18 A2989 RMK AO2
KSOA 231535Z AUTO 16006KT 10SM CLR 33/18 A2989 RMK AO2
KSOA 231515Z AUTO 19006G11KT 10SM CLR 32/18 A2989 RMK AO2
KSOA 231455Z AUTO 17008KT 10SM CLR 31/18 A2989 RMK AO2
KSOA 231435Z AUTO 19007KT 10SM CLR 30/18 A2989 RMK AO2
KSOA 231415Z AUTO 16008KT 10SM CLR 30/18 A2988 RMK AO2
KSOA 231355Z AUTO 17008KT 10SM CLR 29/18 A2988 RMK AO2
KSOA 231335Z AUTO 17008KT 10SM CLR 28/18 A2987 RMK AO2
KSOA 231315Z AUTO 17005KT CLR 28/19 A2987 RMK AO2
KSOA 231255Z AUTO 00000KT 10SM CLR 27/19 A2986 RMK AO2
KSOA 231235Z AUTO 19004KT 10SM CLR 26/19 A2985 RMK AO2
KSOA 231215Z AUTO 19004KT 10SM CLR 26/19 A2984 RMK AO2
KSOA 231155Z AUTO 16005KT 10SM CLR 26/19 A2983 RMK AO2
KSOA 231135Z AUTO 17005KT 10SM CLR 26/19 A2982 RMK AO2
KSOA 231115Z AUTO 17006KT 10SM CLR 26/19 A2981 RMK AO2
KSOA 231055Z AUTO 17006KT 10SM CLR 26/18 A2981 RMK AO2
KSOA 231035Z AUTO 00000KT 10SM CLR 26/16 A2981 RMK AO2
KSOA 231015Z AUTO 00000KT 10SM CLR 26/15 A2982 RMK AO2
KSOA 230955Z AUTO 17004KT 10SM CLR 26/15 A2981 RMK AO2
KSOA 230935Z AUTO 00000KT 10SM CLR 25/14 A2981 RMK AO2
KSOA 230915Z AUTO 00000KT 10SM CLR 23/14 A2981 RMK AO2


Page loaded:  20:55 UTC  |   01:55 PM Pacific  |   02:55 PM Mountain  |   03:55 PM Central  |   04:55 PM Eastern

 

ADVISORIES

FORECASTS

FORECASTS

OBSERVATIONS

USER TOOLS

ABOUT US